Aviation Digital Data Service (ADDS)

Output produced by METARs form (0423 UTC 19 February 2019)
found at http://www.aviationweather.gov/metar/data/
 
METAR text: KDVT 190353Z 33004KT 10SM CLR 07/M01 A2993 RMK AO2 SLP132 T00671006
Conditions at: KDVT (PHOENIX/DEER VLY, AZ, US) observed 0353 UTC 19 February 2019
Temperature: 6.7°C (44°F)
Dewpoint: -0.6°C (31°F) [RH = 60%]
Pressure (altimeter): 29.93 inches Hg (1013.6 mb)
[Sea-level pressure: 1013.2 mb]
Winds: from the NNW (330 degrees) at 5 MPH (4 knots; 2.1 m/s)
Visibility: 10 or more miles (16+ km)
Ceiling: at least 12,000 feet AGL
Clouds: sky clear below 12,000 feet AGL
Weather: no significant weather observed at this time

METAR text: KDVT 190253Z 31004KT 10SM CLR 07/00 A2993 RMK AO2 SLP131 T00670000 53010
Conditions at: KDVT (PHOENIX/DEER VLY, AZ, US) observed 0253 UTC 19 February 2019
Temperature: 6.7°C (44°F)
Dewpoint: 0.0°C (32°F) [RH = 62%]
Pressure (altimeter): 29.93 inches Hg (1013.6 mb)
[Sea-level pressure: 1013.1 mb]
Winds: from the NW (310 degrees) at 5 MPH (4 knots; 2.1 m/s)
Visibility: 10 or more miles (16+ km)
Ceiling: at least 12,000 feet AGL
Clouds: sky clear below 12,000 feet AGL
Weather: no significant weather observed at this time

METAR text: KDVT 190153Z 32006KT 10SM CLR 08/M02 A2991 RMK AO2 SLP126 T00831017
Conditions at: KDVT (PHOENIX/DEER VLY, AZ, US) observed 0153 UTC 19 February 2019
Temperature: 8.3°C (47°F)
Dewpoint: -1.7°C (29°F) [RH = 49%]
Pressure (altimeter): 29.91 inches Hg (1013.0 mb)
[Sea-level pressure: 1012.6 mb]
Winds: from the NW (320 degrees) at 7 MPH (6 knots; 3.1 m/s)
Visibility: 10 or more miles (16+ km)
Ceiling: at least 12,000 feet AGL
Clouds: sky clear below 12,000 feet AGL
Weather: no significant weather observed at this time

METAR text: KDVT 190053Z 29012KT 10SM BKN075 10/M03 A2990 RMK AO2 SLP121 T01001028
Conditions at: KDVT (PHOENIX/DEER VLY, AZ, US) observed 0053 UTC 19 February 2019
Temperature: 10.0°C (50°F)
Dewpoint: -2.8°C (27°F) [RH = 40%]
Pressure (altimeter): 29.90 inches Hg (1012.6 mb)
[Sea-level pressure: 1012.1 mb]
Winds: from the WNW (290 degrees) at 14 MPH (12 knots; 6.2 m/s)
Visibility: 10 or more miles (16+ km)
Ceiling: 7500 feet AGL
Clouds: broken clouds at 7500 feet AGL
Weather: no significant weather observed at this time

METAR text: KDVT 182353Z 27008KT 10SM BKN065 BKN090 12/M04 A2990 RMK AO2 SLP119 T01171039 10122 20078 58010
Conditions at: KDVT (PHOENIX/DEER VLY, AZ, US) observed 2353 UTC 18 February 2019
Temperature: 11.7°C (53°F)
Dewpoint: -3.9°C (25°F) [RH = 33%]
Pressure (altimeter): 29.90 inches Hg (1012.6 mb)
[Sea-level pressure: 1011.9 mb]
Winds: from the W (270 degrees) at 9 MPH (8 knots; 4.1 m/s)
Visibility: 10 or more miles (16+ km)
Ceiling: 6500 feet AGL
Clouds: broken clouds at 6500 feet AGL
broken clouds at 9000 feet AGL
Weather: no significant weather observed at this time

METAR text: KDVT 182253Z 27006KT 10SM BKN065 OVC085 11/M04 A2991 RMK AO2 SLP122 T01111039
Conditions at: KDVT (PHOENIX/DEER VLY, AZ, US) observed 2253 UTC 18 February 2019
Temperature: 11.1°C (52°F)
Dewpoint: -3.9°C (25°F) [RH = 35%]
Pressure (altimeter): 29.91 inches Hg (1013.0 mb)
[Sea-level pressure: 1012.2 mb]
Winds: from the W (270 degrees) at 7 MPH (6 knots; 3.1 m/s)
Visibility: 10 or more miles (16+ km)
Ceiling: 6500 feet AGL
Clouds: broken clouds at 6500 feet AGL
overcast cloud deck at 8500 feet AGL
Weather: no significant weather observed at this time

METAR text: KDVT 182153Z 28008KT 10SM SCT060 BKN075 12/M02 A2992 RMK AO2 SLP125 T01171022
Conditions at: KDVT (PHOENIX/DEER VLY, AZ, US) observed 2153 UTC 18 February 2019
Temperature: 11.7°C (53°F)
Dewpoint: -2.2°C (28°F) [RH = 38%]
Pressure (altimeter): 29.92 inches Hg (1013.3 mb)
[Sea-level pressure: 1012.5 mb]
Winds: from the W (280 degrees) at 9 MPH (8 knots; 4.1 m/s)
Visibility: 10 or more miles (16+ km)
Ceiling: 7500 feet AGL
Clouds: scattered clouds at 6000 feet AGL
broken clouds at 7500 feet AGL
Weather: no significant weather observed at this time

METAR text: KDVT 182053Z 21005KT 10SM SCT046 BKN070 10/M01 A2993 RMK AO2 SLP129 T01001011 58019
Conditions at: KDVT (PHOENIX/DEER VLY, AZ, US) observed 2053 UTC 18 February 2019
Temperature: 10.0°C (50°F)
Dewpoint: -1.1°C (30°F) [RH = 46%]
Pressure (altimeter): 29.93 inches Hg (1013.6 mb)
[Sea-level pressure: 1012.9 mb]
Winds: from the SSW (210 degrees) at 6 MPH (5 knots; 2.6 m/s)
Visibility: 10 or more miles (16+ km)
Ceiling: 7000 feet AGL
Clouds: scattered clouds at 4600 feet AGL
broken clouds at 7000 feet AGL
Weather: no significant weather observed at this time

METAR text: KDVT 181953Z 28006KT 10SM SCT042 SCT055 OVC070 09/00 A2997 RMK AO2 SLP141 T00890000
Conditions at: KDVT (PHOENIX/DEER VLY, AZ, US) observed 1953 UTC 18 February 2019
Temperature: 8.9°C (48°F)
Dewpoint: 0.0°C (32°F) [RH = 54%]
Pressure (altimeter): 29.97 inches Hg (1015.0 mb)
[Sea-level pressure: 1014.1 mb]
Winds: from the W (280 degrees) at 7 MPH (6 knots; 3.1 m/s)
Visibility: 10 or more miles (16+ km)
Ceiling: 7000 feet AGL
Clouds: scattered clouds at 4200 feet AGL
scattered clouds at 5500 feet AGL
overcast cloud deck at 7000 feet AGL
Weather: no significant weather observed at this time

METAR text: KDVT 181853Z COR 21013KT 10SM SCT029 BKN035 BKN043 09/03 A2998 RMK AO2 SLP146 T00940028
Conditions at: KDVT (PHOENIX/DEER VLY, AZ, US) observed 1853 UTC 18 February 2019
Temperature: 9.4°C (49°F)
Dewpoint: 2.8°C (37°F) [RH = 63%]
Pressure (altimeter): 29.98 inches Hg (1015.3 mb)
[Sea-level pressure: 1014.6 mb]
Winds: from the SSW (210 degrees) at 15 MPH (13 knots; 6.7 m/s)
Visibility: 10 or more miles (16+ km)
Ceiling: 3500 feet AGL
Clouds: scattered clouds at 2900 feet AGL
broken clouds at 3500 feet AGL
broken clouds at 4300 feet AGL
Weather: no significant weather observed at this time

METAR text: KDVT 181832Z 20010KT 10SM SCT024 BKN032 BKN050 09/04 A2999 RMK AO2 T00890039
Conditions at: KDVT (PHOENIX/DEER VLY, AZ, US) observed 1832 UTC 18 February 2019
Temperature: 8.9°C (48°F)
Dewpoint: 3.9°C (39°F) [RH = 71%]
Pressure (altimeter): 29.99 inches Hg (1015.7 mb)
Winds: from the SSW (200 degrees) at 12 MPH (10 knots; 5.1 m/s)
Visibility: 10 or more miles (16+ km)
Ceiling: 3200 feet AGL
Clouds: scattered clouds at 2400 feet AGL
broken clouds at 3200 feet AGL
broken clouds at 5000 feet AGL
Weather: no significant weather observed at this time

METAR text: KDVT 181753Z 21010KT 10SM BKN022 OVC029 08/03 A2999 RMK AO2 RAE1659 SLP148 P0000 60000 T00780033 10078 20061 51010
Conditions at: KDVT (PHOENIX/DEER VLY, AZ, US) observed 1753 UTC 18 February 2019
Temperature: 7.8°C (46°F)
Dewpoint: 3.3°C (38°F) [RH = 73%]
Pressure (altimeter): 29.99 inches Hg (1015.7 mb)
[Sea-level pressure: 1014.8 mb]
Winds: from the SSW (210 degrees) at 12 MPH (10 knots; 5.1 m/s)
Visibility: 10 or more miles (16+ km)
Ceiling: 2200 feet AGL
Clouds: broken clouds at 2200 feet AGL
overcast cloud deck at 2900 feet AGL
Weather: no significant weather observed at this time

METAR text: KDVT 181729Z 23008KT 10SM BKN023 OVC110 08/04 A2999 RMK AO2 RAE1659 P0000 T00780039
Conditions at: KDVT (PHOENIX/DEER VLY, AZ, US) observed 1729 UTC 18 February 2019
Temperature: 7.8°C (46°F)
Dewpoint: 3.9°C (39°F) [RH = 76%]
Pressure (altimeter): 29.99 inches Hg (1015.7 mb)
Winds: from the SW (230 degrees) at 9 MPH (8 knots; 4.1 m/s)
Visibility: 10 or more miles (16+ km)
Ceiling: 2300 feet AGL
Clouds: broken clouds at 2300 feet AGL
overcast cloud deck at 11000 feet AGL
Weather: no significant weather observed at this time

METAR text: KDVT 181653Z 19008KT 10SM -RA FEW024 BKN046 OVC055 07/03 A2999 RMK AO2 SLP149 P0000 T00670033
Conditions at: KDVT (PHOENIX/DEER VLY, AZ, US) observed 1653 UTC 18 February 2019
Temperature: 6.7°C (44°F)
Dewpoint: 3.3°C (38°F) [RH = 79%]
Pressure (altimeter): 29.99 inches Hg (1015.7 mb)
[Sea-level pressure: 1014.9 mb]
Winds: from the S (190 degrees) at 9 MPH (8 knots; 4.1 m/s)
Visibility: 10 or more miles (16+ km)
Ceiling: 4600 feet AGL
Clouds: few clouds at 2400 feet AGL
broken clouds at 4600 feet AGL
overcast cloud deck at 5500 feet AGL
Weather: -RA  (light rain)

METAR text: KDVT 181602Z 19003KT 10SM -RA SCT027 BKN034 OVC060 07/04 A2998 RMK AO2 P0000 T00670044
Conditions at: KDVT (PHOENIX/DEER VLY, AZ, US) observed 1602 UTC 18 February 2019
Temperature: 6.7°C (44°F)
Dewpoint: 4.4°C (40°F) [RH = 85%]
Pressure (altimeter): 29.98 inches Hg (1015.3 mb)
Winds: from the S (190 degrees) at 3 MPH (3 knots; 1.5 m/s)
Visibility: 10 or more miles (16+ km)
Ceiling: 3400 feet AGL
Clouds: scattered clouds at 2700 feet AGL
broken clouds at 3400 feet AGL
overcast cloud deck at 6000 feet AGL
Weather: -RA  (light rain)

METAR text: KDVT 181553Z 00000KT 10SM -RA BKN026 BKN031 OVC049 07/04 A2998 RMK AO2 RAB53 SLP148 P0000 T00670044
Conditions at: KDVT (PHOENIX/DEER VLY, AZ, US) observed 1553 UTC 18 February 2019
Temperature: 6.7°C (44°F)
Dewpoint: 4.4°C (40°F) [RH = 85%]
Pressure (altimeter): 29.98 inches Hg (1015.3 mb)
[Sea-level pressure: 1014.8 mb]
Winds: calm
Visibility: 10 or more miles (16+ km)
Ceiling: 2600 feet AGL
Clouds: broken clouds at 2600 feet AGL
broken clouds at 3100 feet AGL
overcast cloud deck at 4900 feet AGL
Weather: -RA  (light rain)

METAR text: KDVT 181520Z 00000KT 10SM BKN028 OVC035 06/04 A2997 RMK AO2 T00610044
Conditions at: KDVT (PHOENIX/DEER VLY, AZ, US) observed 1520 UTC 18 February 2019
Temperature: 6.1°C (43°F)
Dewpoint: 4.4°C (40°F) [RH = 89%]
Pressure (altimeter): 29.97 inches Hg (1015.0 mb)
Winds: calm
Visibility: 10 or more miles (16+ km)
Ceiling: 2800 feet AGL
Clouds: broken clouds at 2800 feet AGL
overcast cloud deck at 3500 feet AGL
Weather: no significant weather observed at this time

METAR text: KDVT 181505Z 00000KT 10SM SCT024 BKN032 OVC039 06/04 A2995 RMK AO2 T00610044
Conditions at: KDVT (PHOENIX/DEER VLY, AZ, US) observed 1505 UTC 18 February 2019
Temperature: 6.1°C (43°F)
Dewpoint: 4.4°C (40°F) [RH = 89%]
Pressure (altimeter): 29.95 inches Hg (1014.3 mb)
Winds: calm
Visibility: 10 or more miles (16+ km)
Ceiling: 3200 feet AGL
Clouds: scattered clouds at 2400 feet AGL
broken clouds at 3200 feet AGL
overcast cloud deck at 3900 feet AGL
Weather: no significant weather observed at this time

METAR text: KDVT 181453Z 00000KT 10SM SCT021 BKN027 OVC042 06/04 A2996 RMK AO2 RAE07B19E45 SLP139 P0000 60000 T00610044 53007
Conditions at: KDVT (PHOENIX/DEER VLY, AZ, US) observed 1453 UTC 18 February 2019
Temperature: 6.1°C (43°F)
Dewpoint: 4.4°C (40°F) [RH = 89%]
Pressure (altimeter): 29.96 inches Hg (1014.6 mb)
[Sea-level pressure: 1013.9 mb]
Winds: calm
Visibility: 10 or more miles (16+ km)
Ceiling: 2700 feet AGL
Clouds: scattered clouds at 2100 feet AGL
broken clouds at 2700 feet AGL
overcast cloud deck at 4200 feet AGL
Weather: no significant weather observed at this time

METAR text: KDVT 181414Z AUTO 20005KT 10SM SCT013 OVC023 06/05 A2995 RMK AO2 RAE07 P0000 T00610050
Conditions at: KDVT (PHOENIX/DEER VLY, AZ, US) observed 1414 UTC 18 February 2019
Temperature: 6.1°C (43°F)
Dewpoint: 5.0°C (41°F) [RH = 93%]
Pressure (altimeter): 29.95 inches Hg (1014.3 mb)
Winds: from the SSW (200 degrees) at 6 MPH (5 knots; 2.6 m/s)
Visibility: 10 or more miles (16+ km)
Ceiling: 2300 feet AGL
Clouds: scattered clouds at 1300 feet AGL
overcast cloud deck at 2300 feet AGL
Weather: automated observation with no human augmentation;
there may or may not be significant weather present at this time

METAR text: KDVT 181353Z AUTO 23003KT 4SM -RA BR BKN013 BKN023 OVC029 06/04 A2995 RMK AO2 RAB31 SLP135 P0000 T00610044
Conditions at: KDVT (PHOENIX/DEER VLY, AZ, US) observed 1353 UTC 18 February 2019
Temperature: 6.1°C (43°F)
Dewpoint: 4.4°C (40°F) [RH = 89%]
Pressure (altimeter): 29.95 inches Hg (1014.3 mb)
[Sea-level pressure: 1013.5 mb]
Winds: from the SW (230 degrees) at 3 MPH (3 knots; 1.5 m/s)
Visibility: 4 miles ( 6 km)
Ceiling: 1300 feet AGL
Clouds: broken clouds at 1300 feet AGL
broken clouds at 2300 feet AGL
overcast cloud deck at 2900 feet AGL
Weather: -RA BR  (light rain, mist)

METAR text: KDVT 181351Z AUTO 23004KT 3SM -RA BR BKN013 BKN018 OVC029 06/04 A2994 RMK AO2 RAB31 P0000
Conditions at: KDVT (PHOENIX/DEER VLY, AZ, US) observed 1351 UTC 18 February 2019
Temperature: 6.0°C (43°F)
Dewpoint: 4.0°C (39°F) [RH = 87%]
Pressure (altimeter): 29.94 inches Hg (1014.0 mb)
Winds: from the SW (230 degrees) at 5 MPH (4 knots; 2.1 m/s)
Visibility: 3 miles ( 5 km)
Ceiling: 1300 feet AGL
Clouds: broken clouds at 1300 feet AGL
broken clouds at 1800 feet AGL
overcast cloud deck at 2900 feet AGL
Weather: -RA BR  (light rain, mist)

METAR text: KDVT 181344Z AUTO 23003KT 2 1/2SM RA BR SCT015 BKN023 OVC035 06/04 A2994 RMK AO2 VIS 1 1/2V5 RAB31 P0000 T00610044
Conditions at: KDVT (PHOENIX/DEER VLY, AZ, US) observed 1344 UTC 18 February 2019
Temperature: 6.1°C (43°F)
Dewpoint: 4.4°C (40°F) [RH = 89%]
Pressure (altimeter): 29.94 inches Hg (1014.0 mb)
Winds: from the SW (230 degrees) at 3 MPH (3 knots; 1.5 m/s)
Visibility: 2.50 miles (4.02 km)
Ceiling: 2300 feet AGL
Clouds: scattered clouds at 1500 feet AGL
broken clouds at 2300 feet AGL
overcast cloud deck at 3500 feet AGL
Weather: RA BR  (moderate rain, mist)

METAR text: KDVT 181253Z AUTO 17005KT 10SM SCT041 BKN060 OVC080 06/03 A2993 RMK AO2 SLP131 T00610033
Conditions at: KDVT (PHOENIX/DEER VLY, AZ, US) observed 1253 UTC 18 February 2019
Temperature: 6.1°C (43°F)
Dewpoint: 3.3°C (38°F) [RH = 82%]
Pressure (altimeter): 29.93 inches Hg (1013.6 mb)
[Sea-level pressure: 1013.1 mb]
Winds: from the S (170 degrees) at 6 MPH (5 knots; 2.6 m/s)
Visibility: 10 or more miles (16+ km)
Ceiling: 6000 feet AGL
Clouds: scattered clouds at 4100 feet AGL
broken clouds at 6000 feet AGL
overcast cloud deck at 8000 feet AGL
Weather: automated observation with no human augmentation;
there may or may not be significant weather present at this time

METAR text: KDVT 181153Z AUTO 00000KT 10SM SCT032 BKN046 OVC110 06/03 A2993 RMK AO2 RAE19 SLP130 P0000 60000 T00610028 10111 20056 56002
Conditions at: KDVT (PHOENIX/DEER VLY, AZ, US) observed 1153 UTC 18 February 2019
Temperature: 6.1°C (43°F)
Dewpoint: 2.8°C (37°F) [RH = 79%]
Pressure (altimeter): 29.93 inches Hg (1013.6 mb)
[Sea-level pressure: 1013.0 mb]
Winds: calm
Visibility: 10 or more miles (16+ km)
Ceiling: 4600 feet AGL
Clouds: scattered clouds at 3200 feet AGL
broken clouds at 4600 feet AGL
overcast cloud deck at 11000 feet AGL
Weather: automated observation with no human augmentation;
there may or may not be significant weather present at this time

METAR text: KDVT 181053Z AUTO 30014KT 10SM -RA OVC042 06/03 A2994 RMK AO2 PK WND 29026/1028 RAB16 SLP131 P0000 T00610033
Conditions at: KDVT (PHOENIX/DEER VLY, AZ, US) observed 1053 UTC 18 February 2019
Temperature: 6.1°C (43°F)
Dewpoint: 3.3°C (38°F) [RH = 82%]
Pressure (altimeter): 29.94 inches Hg (1014.0 mb)
[Sea-level pressure: 1013.1 mb]
Winds: from the WNW (300 degrees) at 16 MPH (14 knots; 7.2 m/s)
Visibility: 10 or more miles (16+ km)
Ceiling: 4200 feet AGL
Clouds: overcast cloud deck at 4200 feet AGL
Weather: -RA  (light rain)

METAR text: KDVT 180953Z AUTO 27008KT 10SM FEW045 OVC060 08/03 A2993 RMK AO2 RAB03E12B32E51 SLP129 P0000 T00780028
Conditions at: KDVT (PHOENIX/DEER VLY, AZ, US) observed 0953 UTC 18 February 2019
Temperature: 7.8°C (46°F)
Dewpoint: 2.8°C (37°F) [RH = 71%]
Pressure (altimeter): 29.93 inches Hg (1013.6 mb)
[Sea-level pressure: 1012.9 mb]
Winds: from the W (270 degrees) at 9 MPH (8 knots; 4.1 m/s)
Visibility: 10 or more miles (16+ km)
Ceiling: 6000 feet AGL
Clouds: few clouds at 4500 feet AGL
overcast cloud deck at 6000 feet AGL
Weather: automated observation with no human augmentation;
there may or may not be significant weather present at this time

METAR text: KDVT 180853Z AUTO 24008KT 10SM SCT042 OVC065 08/02 A2994 RMK AO2 RAB26E49 SLP131 P0000 60000 T00830022 53004
Conditions at: KDVT (PHOENIX/DEER VLY, AZ, US) observed 0853 UTC 18 February 2019
Temperature: 8.3°C (47°F)
Dewpoint: 2.2°C (36°F) [RH = 65%]
Pressure (altimeter): 29.94 inches Hg (1014.0 mb)
[Sea-level pressure: 1013.1 mb]
Winds: from the WSW (240 degrees) at 9 MPH (8 knots; 4.1 m/s)
Visibility: 10 or more miles (16+ km)
Ceiling: 6500 feet AGL
Clouds: scattered clouds at 4200 feet AGL
overcast cloud deck at 6500 feet AGL
Weather: automated observation with no human augmentation;
there may or may not be significant weather present at this time

METAR text: KDVT 180753Z AUTO 18005G16KT 10SM FEW047 BKN070 OVC110 09/00 A2993 RMK AO2 RAB00E10B40E50 SLP126 P0000 T00940000
Conditions at: KDVT (PHOENIX/DEER VLY, AZ, US) observed 0753 UTC 18 February 2019
Temperature: 9.4°C (49°F)
Dewpoint: 0.0°C (32°F) [RH = 52%]
Pressure (altimeter): 29.93 inches Hg (1013.6 mb)
[Sea-level pressure: 1012.6 mb]
Winds: from the S (180 degrees) at 6 MPH (5 knots; 2.6 m/s)
gusting to 18 MPH (16 knots; 8.2 m/s)
Visibility: 10 or more miles (16+ km)
Ceiling: 7000 feet AGL
Clouds: few clouds at 4700 feet AGL
broken clouds at 7000 feet AGL
overcast cloud deck at 11000 feet AGL
Weather: automated observation with no human augmentation;
there may or may not be significant weather present at this time

METAR text: KDVT 180653Z AUTO 21010KT 10SM OVC065 11/M02 A2993 RMK AO2 SLP127 T01061022 401390039
Conditions at: KDVT (PHOENIX/DEER VLY, AZ, US) observed 0653 UTC 18 February 2019
Temperature: 10.6°C (51°F)
Dewpoint: -2.2°C (28°F) [RH = 41%]
Pressure (altimeter): 29.93 inches Hg (1013.6 mb)
[Sea-level pressure: 1012.7 mb]
Winds: from the SSW (210 degrees) at 12 MPH (10 knots; 5.1 m/s)
Visibility: 10 or more miles (16+ km)
Ceiling: 6500 feet AGL
Clouds: overcast cloud deck at 6500 feet AGL
Weather: automated observation with no human augmentation;
there may or may not be significant weather present at this time

METAR text: KDVT 180553Z 19008KT 10SM FEW070 BKN090 BKN110 11/M02 A2993 RMK AO2 SLP127 T01111022 10133 20106 53001
Conditions at: KDVT (PHOENIX/DEER VLY, AZ, US) observed 0553 UTC 18 February 2019
Temperature: 11.1°C (52°F)
Dewpoint: -2.2°C (28°F) [RH = 39%]
Pressure (altimeter): 29.93 inches Hg (1013.6 mb)
[Sea-level pressure: 1012.7 mb]
Winds: from the S (190 degrees) at 9 MPH (8 knots; 4.1 m/s)
Visibility: 10 or more miles (16+ km)
Ceiling: 9000 feet AGL
Clouds: few clouds at 7000 feet AGL
broken clouds at 9000 feet AGL
broken clouds at 11000 feet AGL
Weather: no significant weather observed at this time

METAR text: KDVT 180453Z AUTO 18006KT 10SM SCT120 11/M02 A2992 RMK AO2 SLP126 T01061022
Conditions at: KDVT (PHOENIX/DEER VLY, AZ, US) observed 0453 UTC 18 February 2019
Temperature: 10.6°C (51°F)
Dewpoint: -2.2°C (28°F) [RH = 41%]
Pressure (altimeter): 29.92 inches Hg (1013.3 mb)
[Sea-level pressure: 1012.6 mb]
Winds: from the S (180 degrees) at 7 MPH (6 knots; 3.1 m/s)
Visibility: 10 or more miles (16+ km)
Ceiling: at least 12,000 feet AGL
Clouds: scattered clouds at 12000 feet AGL
Weather: automated observation with no human augmentation;
there may or may not be significant weather present at this time

METAR text: KDVT 180353Z 19007KT 10SM BKN080 11/M03 A2992 RMK AO2 SLP127 T01111028
Conditions at: KDVT (PHOENIX/DEER VLY, AZ, US) observed 0353 UTC 18 February 2019
Temperature: 11.1°C (52°F)
Dewpoint: -2.8°C (27°F) [RH = 38%]
Pressure (altimeter): 29.92 inches Hg (1013.3 mb)
[Sea-level pressure: 1012.7 mb]
Winds: from the S (190 degrees) at 8 MPH (7 knots; 3.6 m/s)
Visibility: 10 or more miles (16+ km)
Ceiling: 8000 feet AGL
Clouds: broken clouds at 8000 feet AGL
Weather: no significant weather observed at this time

METAR text: KDVT 180253Z 19006KT 10SM SCT080 OVC090 12/M03 A2992 RMK AO2 SLP128 T01171033 53006
Conditions at: KDVT (PHOENIX/DEER VLY, AZ, US) observed 0253 UTC 18 February 2019
Temperature: 11.7°C (53°F)
Dewpoint: -3.3°C (26°F) [RH = 35%]
Pressure (altimeter): 29.92 inches Hg (1013.3 mb)
[Sea-level pressure: 1012.8 mb]
Winds: from the S (190 degrees) at 7 MPH (6 knots; 3.1 m/s)
Visibility: 10 or more miles (16+ km)
Ceiling: 9000 feet AGL
Clouds: scattered clouds at 8000 feet AGL
overcast cloud deck at 9000 feet AGL
Weather: no significant weather observed at this time

METAR text: KDVT 180153Z 22011KT 10SM OVC080 12/M04 A2991 RMK AO2 SLP124 T01221044
Conditions at: KDVT (PHOENIX/DEER VLY, AZ, US) observed 0153 UTC 18 February 2019
Temperature: 12.2°C (54°F)
Dewpoint: -4.4°C (24°F) [RH = 31%]
Pressure (altimeter): 29.91 inches Hg (1013.0 mb)
[Sea-level pressure: 1012.4 mb]
Winds: from the SW (220 degrees) at 13 MPH (11 knots; 5.7 m/s)
Visibility: 10 or more miles (16+ km)
Ceiling: 8000 feet AGL
Clouds: overcast cloud deck at 8000 feet AGL
Weather: no significant weather observed at this time

METAR text: KDVT 180053Z COR 24010G17KT 10SM SCT075 BKN090 13/M04 A2990 RMK AO2 SLP121 T01281039
Conditions at: KDVT (PHOENIX/DEER VLY, AZ, US) observed 0053 UTC 18 February 2019
Temperature: 12.8°C (55°F)
Dewpoint: -3.9°C (25°F) [RH = 31%]
Pressure (altimeter): 29.90 inches Hg (1012.6 mb)
[Sea-level pressure: 1012.1 mb]
Winds: from the WSW (240 degrees) at 12 MPH (10 knots; 5.1 m/s)
gusting to 20 MPH (17 knots; 8.7 m/s)
Visibility: 10 or more miles (16+ km)
Ceiling: 9000 feet AGL
Clouds: scattered clouds at 7500 feet AGL
broken clouds at 9000 feet AGL
Weather: no significant weather observed at this time

METAR text: KDVT 172353Z COR 20015G20KT 10SM BKN070 OVC095 13/M03 A2990 RMK AO2 SLP120 T01281028 10139 20100 56015
Conditions at: KDVT (PHOENIX/DEER VLY, AZ, US) observed 2353 UTC 17 February 2019
Temperature: 12.8°C (55°F)
Dewpoint: -2.8°C (27°F) [RH = 34%]
Pressure (altimeter): 29.90 inches Hg (1012.6 mb)
[Sea-level pressure: 1012.0 mb]
Winds: from the SSW (200 degrees) at 17 MPH (15 knots; 7.7 m/s)
gusting to 23 MPH (20 knots; 10.3 m/s)
Visibility: 10 or more miles (16+ km)
Ceiling: 7000 feet AGL
Clouds: broken clouds at 7000 feet AGL
overcast cloud deck at 9500 feet AGL
Weather: no significant weather observed at this time

METAR text: KDVT 172253Z 25011G22KT 10SM BKN090 13/M03 A2991 RMK AO2 SLP122 T01331033
Conditions at: KDVT (PHOENIX/DEER VLY, AZ, US) observed 2253 UTC 17 February 2019
Temperature: 13.3°C (56°F)
Dewpoint: -3.3°C (26°F) [RH = 31%]
Pressure (altimeter): 29.91 inches Hg (1013.0 mb)
[Sea-level pressure: 1012.2 mb]
Winds: from the WSW (250 degrees) at 13 MPH (11 knots; 5.7 m/s)
gusting to 25 MPH (22 knots; 11.3 m/s)
Visibility: 10 or more miles (16+ km)
Ceiling: 9000 feet AGL
Clouds: broken clouds at 9000 feet AGL
Weather: no significant weather observed at this time

METAR text: KDVT 172153Z 20013G18KT 10SM FEW060 BKN100 13/M02 A2993 RMK AO2 SLP130 T01281017
Conditions at: KDVT (PHOENIX/DEER VLY, AZ, US) observed 2153 UTC 17 February 2019
Temperature: 12.8°C (55°F)
Dewpoint: -1.7°C (29°F) [RH = 36%]
Pressure (altimeter): 29.93 inches Hg (1013.6 mb)
[Sea-level pressure: 1013.0 mb]
Winds: from the SSW (200 degrees) at 15 MPH (13 knots; 6.7 m/s)
gusting to 21 MPH (18 knots; 9.3 m/s)
Visibility: 10 or more miles (16+ km)
Ceiling: 10000 feet AGL
Clouds: few clouds at 6000 feet AGL
broken clouds at 10000 feet AGL
Weather: no significant weather observed at this time

METAR text: KDVT 172053Z 21011KT 10SM BKN095 13/M03 A2995 RMK AO2 SLP135 T01281028 58019
Conditions at: KDVT (PHOENIX/DEER VLY, AZ, US) observed 2053 UTC 17 February 2019
Temperature: 12.8°C (55°F)
Dewpoint: -2.8°C (27°F) [RH = 34%]
Pressure (altimeter): 29.95 inches Hg (1014.3 mb)
[Sea-level pressure: 1013.5 mb]
Winds: from the SSW (210 degrees) at 13 MPH (11 knots; 5.7 m/s)
Visibility: 10 or more miles (16+ km)
Ceiling: 9500 feet AGL
Clouds: broken clouds at 9500 feet AGL
Weather: no significant weather observed at this time

METAR text: KDVT 171953Z 20007KT 10SM BKN060 BKN080 12/M02 A2998 RMK AO2 SLP145 T01221022
Conditions at: KDVT (PHOENIX/DEER VLY, AZ, US) observed 1953 UTC 17 February 2019
Temperature: 12.2°C (54°F)
Dewpoint: -2.2°C (28°F) [RH = 37%]
Pressure (altimeter): 29.98 inches Hg (1015.3 mb)
[Sea-level pressure: 1014.5 mb]
Winds: from the SSW (200 degrees) at 8 MPH (7 knots; 3.6 m/s)
Visibility: 10 or more miles (16+ km)
Ceiling: 6000 feet AGL
Clouds: broken clouds at 6000 feet AGL
broken clouds at 8000 feet AGL
Weather: no significant weather observed at this time

METAR text: KDVT 171853Z VRB04KT 10SM CLR 11/M02 A3000 RMK AO2 SLP153 T01111022
Conditions at: KDVT (PHOENIX/DEER VLY, AZ, US) observed 1853 UTC 17 February 2019
Temperature: 11.1°C (52°F)
Dewpoint: -2.2°C (28°F) [RH = 39%]
Pressure (altimeter): 30.00 inches Hg (1016.0 mb)
[Sea-level pressure: 1015.3 mb]
Winds: variable direction winds at 5 MPH (4 knots; 2.1 m/s)
Visibility: 10 or more miles (16+ km)
Ceiling: at least 12,000 feet AGL
Clouds: sky clear below 12,000 feet AGL
Weather: no significant weather observed at this time

METAR text: KDVT 171753Z 16007KT 10SM CLR 10/M01 A3001 RMK AO2 SLP156 T01001006 10100 20039 51008
Conditions at: KDVT (PHOENIX/DEER VLY, AZ, US) observed 1753 UTC 17 February 2019
Temperature: 10.0°C (50°F)
Dewpoint: -0.6°C (31°F) [RH = 48%]
Pressure (altimeter): 30.01 inches Hg (1016.3 mb)
[Sea-level pressure: 1015.6 mb]
Winds: from the SSE (160 degrees) at 8 MPH (7 knots; 3.6 m/s)
Visibility: 10 or more miles (16+ km)
Ceiling: at least 12,000 feet AGL
Clouds: sky clear below 12,000 feet AGL
Weather: no significant weather observed at this time

METAR text: KDVT 171653Z 21004KT 10SM CLR 08/M01 A3001 RMK AO2 SLP157 T00831006
Conditions at: KDVT (PHOENIX/DEER VLY, AZ, US) observed 1653 UTC 17 February 2019
Temperature: 8.3°C (47°F)
Dewpoint: -0.6°C (31°F) [RH = 53%]
Pressure (altimeter): 30.01 inches Hg (1016.3 mb)
[Sea-level pressure: 1015.7 mb]
Winds: from the SSW (210 degrees) at 5 MPH (4 knots; 2.1 m/s)
Visibility: 10 or more miles (16+ km)
Ceiling: at least 12,000 feet AGL
Clouds: sky clear below 12,000 feet AGL
Weather: no significant weather observed at this time